Estación Meteorológica Peña el Pijo (Robertgarden) [ 01/30/23 13:58:29 CET ]

Fecha Hora Presion(HPa) Temp (°C) Humedad % Rocio (°C) Viento ( m/s) Direccion Lluvia 1Hora(mm) Lluvia 24H(mm) LLuvia Total(mm)
2012-Oct-27 01:01:13 996.800 7.6 90 6.1         178.19
2012-Oct-27 02:01:16 996.400 8.1 92 6.9         178.19
2012-Oct-27 03:01:47 996.200 8.5 92 7.3         178.19
2012-Oct-27 04:10:09 995.700 9.1 93 8.0         178.19
2012-Oct-27 05:01:50 995.300 9.3 93 8.2         178.19
2012-Oct-27 06:01:51 995.000 9.3 94 8.4         178.19
2012-Oct-27 07:01:12 995.100 9.3 94 8.4         178.19
2012-Oct-27 08:01:18 995.000 9.3 94 8.4         178.19
2012-Oct-27 09:01:16 995.500 9.0 94 8.1         178.19
2012-Oct-27 10:01:16 996.200 10.4 94 9.4         178.19
2012-Oct-27 11:01:13 997.100 11.3 93 10.2         178.19
2012-Oct-27 12:01:25 997.800 11.0 91 9.6         178.19
2012-Oct-27 13:01:14 998.100 11.8 91 10.4         178.19
2012-Oct-27 14:01:12 997.900 12.7 86 10.4         178.19
2012-Oct-27 15:01:19 997.700 12.3 87 10.2         178.19
2012-Oct-27 16:01:13 997.700 14.2 79 10.6         178.19
2012-Oct-27 17:01:14 998.000 12.8 81 9.6         178.19
2012-Oct-27 18:01:13 998.500 11.3 86 9.0         178.19
2012-Oct-27 19:01:17 999.100 10.4 88 8.5         178.19
2012-Oct-27 20:01:11 999.900 10.0 90 8.4         178.19
2012-Oct-27 21:01:14 1000.400 9.8 91 8.4         178.19
2012-Oct-27 22:01:13 1000.800 9.3 92 8.1         178.19
2012-Oct-27 23:01:16 1001.300 8.9 92 7.7         178.19

Temperatura Máxima:14°    Temperatura Mínima:
Presión Máxima:1001.300 Hpa    Presión Mínima:995.000 Hpa


Volver